createdAt,value
2022-10-11T00:02:27.253Z,11.97
2022-10-11T00:04:54.678Z,7.77
2022-10-11T00:07:22.146Z,8.40
2022-10-11T00:09:49.592Z,6.30
2022-10-11T00:12:17.039Z,10.97
2022-10-11T00:14:44.620Z,9.47
2022-10-11T00:17:13.438Z,5.90
2022-10-11T00:19:41.007Z,11.97
2022-10-11T00:22:08.433Z,7.23
2022-10-11T00:24:35.857Z,9.07
2022-10-11T00:27:03.308Z,11.83
2022-10-11T00:29:30.863Z,7.27
2022-10-11T00:31:58.398Z,7.13
2022-10-11T00:34:27.221Z,7.57
2022-10-11T00:36:54.659Z,11.03
2022-10-11T00:39:22.378Z,6.93
2022-10-11T00:41:50.139Z,7.37
2022-10-11T00:44:18.820Z,7.40
2022-10-11T00:46:53.627Z,12.00
2022-10-11T00:49:26.165Z,8.97
2022-10-11T00:51:57.970Z,7.97
2022-10-11T00:54:28.190Z,9.13
2022-10-11T00:56:57.801Z,11.07
2022-10-11T00:59:27.290Z,10.33
2022-10-11T01:01:54.740Z,7.70
2022-10-11T01:04:22.425Z,11.13
2022-10-11T01:06:50.334Z,6.63
2022-10-11T01:09:19.670Z,7.57
2022-10-11T01:11:47.750Z,7.73
2022-10-11T01:14:24.522Z,9.50
2022-10-11T01:16:56.330Z,11.13
2022-10-11T01:19:36.735Z,7.87
2022-10-11T01:22:12.247Z,8.37
2022-10-11T01:24:59.199Z,9.60
2022-10-11T01:27:44.564Z,10.70
2022-10-11T01:30:23.560Z,7.63
2022-10-11T01:32:55.639Z,7.50
2022-10-11T01:35:44.867Z,11.43
2022-10-11T01:38:17.907Z,11.83
2022-10-11T01:40:47.959Z,8.87
2022-10-11T01:43:16.110Z,12.13
2022-10-11T01:45:46.310Z,13.43
2022-10-11T01:48:14.643Z,12.37
2022-10-11T01:50:44.877Z,10.47
2022-10-11T01:53:30.623Z,9.87
2022-10-11T01:56:02.998Z,14.43
2022-10-11T01:58:36.878Z,9.30
2022-10-11T02:01:10.180Z,10.87
2022-10-11T02:03:44.487Z,13.53
2022-10-11T02:06:14.043Z,12.40
2022-10-11T02:08:47.962Z,16.80
2022-10-11T02:11:18.935Z,9.90
2022-10-11T02:13:48.080Z,12.63
2022-10-11T02:16:19.815Z,8.67
2022-10-11T02:18:48.700Z,9.77
2022-10-11T02:21:17.493Z,7.73
2022-10-11T02:23:49.043Z,9.97
2022-10-11T02:26:17.380Z,7.67
2022-10-11T02:28:45.440Z,7.10
2022-10-11T02:31:13.942Z,9.53
2022-10-11T02:33:45.471Z,11.30
2022-10-11T02:36:15.529Z,10.63
2022-10-11T02:38:45.497Z,12.27
2022-10-11T02:41:16.648Z,10.33
2022-10-11T02:43:46.699Z,12.63
2022-10-11T02:46:17.548Z,13.40
2022-10-11T02:48:46.547Z,15.90
2022-10-11T02:51:15.288Z,11.77
2022-10-11T02:53:42.799Z,12.80
2022-10-11T02:56:10.291Z,14.50
2022-10-11T02:58:37.735Z,10.40
2022-10-11T03:01:06.093Z,13.43
2022-10-11T03:03:33.511Z,14.73
2022-10-11T03:06:03.832Z,18.67
2022-10-11T03:08:32.153Z,14.93
2022-10-11T03:10:59.571Z,13.37
2022-10-11T03:13:27.122Z,17.40
2022-10-11T03:16:03.206Z,16.93
2022-10-11T03:18:30.948Z,11.47
2022-10-11T03:20:58.619Z,12.67
2022-10-11T03:23:27.524Z,12.30
2022-10-11T03:25:55.051Z,14.13
2022-10-11T03:28:22.722Z,11.17
2022-10-11T03:30:50.308Z,8.37
2022-10-11T03:33:18.134Z,15.27
2022-10-11T03:35:45.891Z,16.47
2022-10-11T03:38:14.122Z,7.97
2022-10-11T03:40:43.118Z,8.73
2022-10-11T03:43:10.548Z,7.73
2022-10-11T03:45:37.983Z,8.07
2022-10-11T03:48:06.011Z,7.93
2022-10-11T03:50:33.434Z,9.43
2022-10-11T03:53:01.063Z,7.67
2022-10-11T03:55:29.022Z,3.93
2022-10-11T03:57:57.851Z,6.20
2022-10-11T04:00:25.268Z,5.57
2022-10-11T04:02:52.693Z,7.43
2022-10-11T04:05:20.200Z,6.47
2022-10-11T04:07:47.637Z,4.77
2022-10-11T04:10:15.182Z,4.23
2022-10-11T04:12:42.622Z,5.63
2022-10-11T04:15:12.587Z,3.83
2022-10-11T04:17:40.008Z,5.60
2022-10-11T04:20:08.168Z,15.23
2022-10-11T04:22:35.601Z,6.53
2022-10-11T04:25:03.187Z,5.63
2022-10-11T04:27:30.921Z,9.10
2022-10-11T04:29:58.351Z,6.07
2022-10-11T04:32:27.619Z,8.30
2022-10-11T04:34:55.157Z,5.33
2022-10-11T04:37:23.187Z,5.53
2022-10-11T04:39:50.609Z,4.90
2022-10-11T04:42:18.047Z,13.93
2022-10-11T04:44:45.464Z,4.93
2022-10-11T04:47:12.917Z,6.30
2022-10-11T04:49:41.682Z,7.37
2022-10-11T04:52:09.142Z,9.07
2022-10-11T04:54:36.620Z,9.63
2022-10-11T04:57:04.616Z,8.17
2022-10-11T04:59:32.067Z,6.50
2022-10-11T05:01:59.558Z,4.90
2022-10-11T05:04:27.015Z,6.40
2022-10-11T05:06:56.062Z,9.23
2022-10-11T05:09:23.469Z,7.80
2022-10-11T05:11:50.984Z,7.97
2022-10-11T05:14:18.487Z,5.30
2022-10-11T05:16:45.919Z,7.07
2022-10-11T05:19:13.449Z,8.17
2022-10-11T05:21:40.893Z,9.03
2022-10-11T05:24:09.799Z,7.50
2022-10-11T05:26:37.257Z,5.47
2022-10-11T05:29:04.896Z,9.57
2022-10-11T05:31:32.544Z,5.73
2022-10-11T05:34:00.657Z,6.93
2022-10-11T05:36:28.117Z,4.30
2022-10-11T05:38:55.764Z,6.70
2022-10-11T05:41:24.566Z,4.70
2022-10-11T05:43:52.141Z,10.20
2022-10-11T05:46:19.593Z,4.80
2022-10-11T05:48:47.029Z,11.77
2022-10-11T05:51:14.739Z,6.50
2022-10-11T05:53:42.218Z,4.33
2022-10-11T05:56:18.043Z,6.17
2022-10-11T05:58:46.990Z,5.43
2022-10-11T06:01:21.268Z,8.07
2022-10-11T06:03:48.811Z,6.13
2022-10-11T06:06:16.399Z,8.73
2022-10-11T06:08:44.295Z,2.17
2022-10-11T06:11:13.143Z,7.87
2022-10-11T06:13:40.615Z,7.73
2022-10-11T06:16:09.469Z,4.37
2022-10-11T06:18:37.138Z,5.90
2022-10-11T06:21:04.900Z,3.13
2022-10-11T06:23:32.475Z,6.77
2022-10-11T06:26:00.381Z,3.30
2022-10-11T06:28:29.081Z,6.20
2022-10-11T06:30:57.238Z,7.67
2022-10-11T06:33:26.113Z,9.07
2022-10-11T06:35:57.684Z,6.10
2022-10-11T06:38:25.137Z,4.23
2022-10-11T06:40:52.600Z,9.93
2022-10-11T06:43:20.040Z,5.50
2022-10-11T06:45:47.467Z,13.27
2022-10-11T06:48:15.201Z,7.20
2022-10-11T06:50:59.209Z,7.37
2022-10-11T06:53:27.727Z,10.90
2022-10-11T06:55:55.158Z,8.20
2022-10-11T06:58:22.577Z,11.00
2022-10-11T07:00:50.124Z,7.17
2022-10-11T07:03:17.578Z,5.27
2022-10-11T07:05:46.537Z,7.30
2022-10-11T07:08:13.963Z,8.17
2022-10-11T07:10:41.389Z,10.67
2022-10-11T07:13:10.640Z,8.67
2022-10-11T07:15:41.833Z,15.03
2022-10-11T07:18:09.260Z,9.60
2022-10-11T07:20:36.809Z,11.17
2022-10-11T07:23:05.639Z,3.87
2022-10-11T07:25:33.399Z,7.23
2022-10-11T07:28:00.832Z,11.70
2022-10-11T07:30:28.257Z,8.10
2022-10-11T07:32:55.685Z,17.03
2022-10-11T07:35:23.117Z,10.07
2022-10-11T07:37:50.593Z,7.17
2022-10-11T07:40:19.665Z,8.60
2022-10-11T07:42:47.226Z,7.97
2022-10-11T07:45:14.793Z,13.73
2022-10-11T07:47:46.261Z,12.00
2022-10-11T07:50:13.878Z,5.33
2022-10-11T07:52:41.329Z,13.13
2022-10-11T07:55:09.310Z,10.73
2022-10-11T07:57:38.116Z,10.30
2022-10-11T08:00:06.563Z,10.60
2022-10-11T08:02:39.388Z,9.13
2022-10-11T08:05:06.984Z,9.30
2022-10-11T08:07:34.500Z,7.17
2022-10-11T08:10:02.027Z,13.37
2022-10-11T08:12:29.473Z,12.13
2022-10-11T08:14:58.452Z,11.07
2022-10-11T08:17:26.100Z,10.33
2022-10-11T08:19:53.646Z,11.43
2022-10-11T08:22:21.057Z,8.03
2022-10-11T08:24:50.033Z,12.60
2022-10-11T08:27:17.463Z,8.47
2022-10-11T08:29:44.944Z,12.47
2022-10-11T08:32:13.730Z,7.67
2022-10-11T08:34:41.160Z,6.57
2022-10-11T08:37:08.597Z,7.70
2022-10-11T08:39:36.058Z,11.20
2022-10-11T08:42:06.018Z,13.17
2022-10-11T08:44:58.400Z,9.03
2022-10-11T08:47:27.153Z,6.90
2022-10-11T08:49:55.172Z,9.33
2022-10-11T08:52:24.012Z,8.20
2022-10-11T08:54:53.737Z,7.47
2022-10-11T08:57:21.918Z,10.67
2022-10-11T08:59:51.054Z,5.80
2022-10-11T09:02:23.129Z,11.47
2022-10-11T09:04:53.341Z,7.50
2022-10-11T09:07:24.641Z,9.93
2022-10-11T09:10:01.693Z,14.23
2022-10-11T09:12:39.820Z,9.13
2022-10-11T09:15:17.786Z,8.20
2022-10-11T09:17:58.915Z,10.10
2022-10-11T09:20:39.316Z,6.20
2022-10-11T09:23:12.641Z,9.20
2022-10-11T09:25:44.353Z,7.60
2022-10-11T09:28:17.240Z,6.63
2022-10-11T09:30:48.201Z,9.37
2022-10-11T09:33:18.874Z,5.80
2022-10-11T09:35:49.240Z,7.77
2022-10-11T09:38:25.614Z,8.33
2022-10-11T09:40:59.645Z,7.33
2022-10-11T09:43:27.100Z,5.63
2022-10-11T09:45:54.511Z,6.67
2022-10-11T09:48:23.808Z,7.03
2022-10-11T09:50:52.933Z,10.70
2022-10-11T09:53:21.889Z,4.30
2022-10-11T09:55:52.102Z,7.77
2022-10-11T09:58:26.732Z,5.37
2022-10-11T10:00:58.072Z,8.50
2022-10-11T10:03:28.977Z,7.93
2022-10-11T10:06:06.463Z,5.07
2022-10-11T10:08:34.412Z,5.77
2022-10-11T10:11:02.615Z,9.03
2022-10-11T10:13:35.823Z,4.60
2022-10-11T10:16:04.277Z,3.87
2022-10-11T10:18:34.283Z,5.80
2022-10-11T10:21:02.101Z,7.77
2022-10-11T10:23:31.438Z,6.90
2022-10-11T10:26:16.648Z,6.30
2022-10-11T10:28:55.624Z,7.53
2022-10-11T10:31:24.351Z,6.10
2022-10-11T10:33:52.449Z,4.67
2022-10-11T10:36:21.794Z,7.30
2022-10-11T10:38:52.805Z,8.40
2022-10-11T10:41:20.452Z,5.00
2022-10-11T10:43:51.048Z,5.80
2022-10-11T10:46:27.048Z,8.23
2022-10-11T10:51:51.790Z,9.27
2022-10-11T10:54:26.596Z,6.53
2022-10-11T10:56:55.761Z,7.87
2022-10-11T10:59:38.724Z,8.63
2022-10-11T11:02:38.578Z,8.63
2022-10-11T11:05:04.124Z,7.33
2022-10-11T11:07:34.808Z,6.03
2022-10-11T11:10:05.247Z,4.67
2022-10-11T11:12:39.541Z,6.80
2022-10-11T11:15:11.039Z,5.27
2022-10-11T11:17:42.933Z,7.90
2022-10-11T11:20:16.590Z,5.83
2022-10-11T11:22:46.458Z,6.70
2022-10-11T11:25:21.447Z,10.47
2022-10-11T11:27:56.653Z,4.73
2022-10-11T11:30:25.501Z,4.73
2022-10-11T11:33:06.387Z,3.87
2022-10-11T11:35:37.941Z,8.80
2022-10-11T11:38:10.424Z,5.70
2022-10-11T11:40:41.494Z,4.90
2022-10-11T11:43:13.328Z,6.97
2022-10-11T11:45:46.052Z,3.60
2022-10-11T11:48:14.939Z,7.23
2022-10-11T11:50:44.952Z,6.00
2022-10-11T11:53:15.723Z,3.30
2022-10-11T11:55:48.148Z,2.90
2022-10-11T11:58:24.300Z,1.80
2022-10-11T12:00:55.076Z,4.97
2022-10-11T12:03:25.244Z,2.40
2022-10-11T12:06:11.573Z,4.13
2022-10-11T12:08:40.022Z,4.77
2022-10-11T12:11:19.785Z,3.80
2022-10-11T12:13:47.751Z,5.40
2022-10-11T12:16:15.984Z,5.57
2022-10-11T12:18:51.726Z,6.17
2022-10-11T12:21:21.387Z,3.57
2022-10-11T12:23:49.389Z,6.77
2022-10-11T12:26:33.872Z,4.23
2022-10-11T12:29:19.220Z,9.30
2022-10-11T12:31:48.390Z,5.70
2022-10-11T12:34:30.747Z,7.93
2022-10-11T12:36:59.110Z,6.50
2022-10-11T12:39:52.605Z,4.67
2022-10-11T12:42:22.864Z,3.20
2022-10-11T12:45:09.108Z,1.87
2022-10-11T12:47:41.017Z,5.13
2022-10-11T12:50:14.153Z,9.47
2022-10-11T12:52:49.376Z,5.17
2022-10-11T12:55:30.711Z,4.70
2022-10-11T12:58:19.089Z,6.00
2022-10-11T13:01:01.465Z,8.43
2022-10-11T13:03:32.469Z,4.60
2022-10-11T13:06:02.014Z,4.30
2022-10-11T13:08:31.629Z,5.90
2022-10-11T13:11:01.950Z,6.00
2022-10-11T13:13:32.529Z,5.23
2022-10-11T13:16:01.787Z,4.00
2022-10-11T13:18:29.339Z,5.40
2022-10-11T13:20:57.158Z,4.93
2022-10-11T13:23:25.624Z,3.73
2022-10-11T13:25:53.749Z,5.10
2022-10-11T13:28:21.750Z,8.87
2022-10-11T13:30:51.910Z,5.03
2022-10-11T13:33:20.370Z,5.43
2022-10-11T13:35:48.487Z,8.83
2022-10-11T13:38:20.801Z,4.17
2022-10-11T13:40:50.859Z,6.27
2022-10-11T13:43:21.425Z,6.10
2022-10-11T13:45:50.315Z,3.97
2022-10-11T13:48:18.197Z,5.47
2022-10-11T13:50:52.065Z,6.07
2022-10-11T13:53:23.801Z,3.57
2022-10-11T13:55:53.333Z,6.37
2022-10-11T13:58:24.446Z,4.77
2022-10-11T14:00:57.840Z,6.20
2022-10-11T14:03:37.653Z,4.53
2022-10-11T14:06:05.437Z,2.27
2022-10-11T14:08:35.461Z,2.93
2022-10-11T14:11:06.482Z,5.63
2022-10-11T14:13:39.276Z,4.43
2022-10-11T14:16:09.990Z,2.93
2022-10-11T14:18:45.026Z,7.40
2022-10-11T14:21:26.207Z,5.03
2022-10-11T14:23:54.103Z,4.60
2022-10-11T14:26:22.557Z,5.23
2022-10-11T14:28:51.859Z,3.70
2022-10-11T14:31:20.793Z,5.80
2022-10-11T14:33:48.521Z,4.63
2022-10-11T14:36:15.982Z,5.30
2022-10-11T14:38:43.396Z,7.93
2022-10-11T14:41:10.815Z,7.60
2022-10-11T14:43:38.265Z,4.73
2022-10-11T14:46:06.370Z,4.63
2022-10-11T14:48:54.315Z,4.57
2022-10-11T14:51:23.946Z,2.67
2022-10-11T14:53:51.584Z,7.00
2022-10-11T14:56:21.436Z,6.37
2022-10-11T14:58:49.577Z,5.93
2022-10-11T15:01:17.896Z,7.07
2022-10-11T15:03:46.713Z,2.80
2022-10-11T15:06:16.952Z,6.03
2022-10-11T15:08:44.424Z,5.60
2022-10-11T15:11:11.955Z,5.13
2022-10-11T15:13:39.416Z,4.43
2022-10-11T15:16:07.608Z,4.10
2022-10-11T15:18:35.349Z,6.87
2022-10-11T15:21:04.324Z,5.23
2022-10-11T15:23:31.824Z,3.97
2022-10-11T15:25:59.620Z,4.23
2022-10-11T15:28:28.531Z,5.27
2022-10-11T15:30:56.364Z,6.00
2022-10-11T15:33:24.518Z,3.13
2022-10-11T15:35:52.234Z,2.30
2022-10-11T15:38:22.421Z,4.53
2022-10-11T15:40:49.953Z,4.87
2022-10-11T15:43:22.049Z,5.50
2022-10-11T15:45:51.884Z,5.97
2022-10-11T15:48:19.950Z,6.93
2022-10-11T15:50:47.415Z,3.50
2022-10-11T15:53:16.013Z,6.70
2022-10-11T15:55:45.709Z,3.03
2022-10-11T15:58:13.574Z,1.60
2022-10-11T16:00:41.107Z,7.07
2022-10-11T16:03:08.533Z,6.30
2022-10-11T16:05:36.156Z,3.13
2022-10-11T16:08:03.626Z,6.00
2022-10-11T16:10:31.122Z,3.10
2022-10-11T16:13:00.016Z,4.67
2022-10-11T16:15:27.498Z,0.73
2022-10-11T16:17:55.233Z,4.53
2022-10-11T16:20:24.666Z,3.83
2022-10-11T16:22:53.360Z,1.97
2022-10-11T16:25:21.521Z,8.77
2022-10-11T16:27:49.054Z,2.97
2022-10-11T16:30:19.501Z,4.20
2022-10-11T16:32:47.051Z,3.27
2022-10-11T16:35:15.138Z,3.97
2022-10-11T16:37:42.729Z,4.20
2022-10-11T16:40:11.007Z,5.47
2022-10-11T16:42:39.094Z,5.77
2022-10-11T16:45:07.127Z,4.40
2022-10-11T16:47:36.172Z,5.37
2022-10-11T16:50:03.957Z,4.43
2022-10-11T16:52:31.438Z,4.90
2022-10-11T16:54:58.865Z,3.43
2022-10-11T16:57:26.309Z,5.57
2022-10-11T16:59:53.760Z,7.10
2022-10-11T17:02:22.695Z,4.90
2022-10-11T17:04:53.835Z,6.47
2022-10-11T17:07:22.806Z,2.50
2022-10-11T17:09:50.556Z,4.13
2022-10-11T17:12:19.076Z,5.73
2022-10-11T17:14:46.884Z,5.83
2022-10-11T17:17:14.548Z,5.73
2022-10-11T17:19:45.343Z,11.40
2022-10-11T17:22:15.296Z,9.80
2022-10-11T17:24:43.071Z,16.23
2022-10-11T17:27:10.769Z,8.47
2022-10-11T17:29:38.210Z,9.90
2022-10-11T17:32:05.876Z,14.87
2022-10-11T17:34:33.554Z,14.17
2022-10-11T17:37:01.063Z,11.70
2022-10-11T17:39:29.816Z,6.90
2022-10-11T17:41:57.253Z,9.60
2022-10-11T17:44:24.726Z,7.13
2022-10-11T17:46:52.421Z,8.83
2022-10-11T17:49:20.008Z,6.83
2022-10-11T17:51:47.527Z,10.60
2022-10-11T17:54:15.009Z,10.40
2022-10-11T17:56:43.862Z,7.23
2022-10-11T17:59:15.407Z,12.30
2022-10-11T18:01:43.057Z,7.63
2022-10-11T18:04:16.371Z,11.13
2022-10-11T18:06:45.079Z,12.60
2022-10-11T18:09:13.702Z,11.47
2022-10-11T18:11:41.167Z,7.40
2022-10-11T18:14:10.131Z,4.47
2022-10-11T18:16:37.943Z,3.37
2022-10-11T18:19:06.210Z,5.00
2022-10-11T18:21:35.012Z,7.77
2022-10-11T18:24:03.593Z,7.87
2022-10-11T18:26:31.302Z,7.93
2022-10-11T18:28:59.176Z,9.93
2022-10-11T18:31:29.163Z,9.37
2022-10-11T18:33:56.916Z,11.20
2022-10-11T18:36:25.483Z,10.73
2022-10-11T18:38:53.855Z,11.93
2022-10-11T18:41:21.925Z,32.50
2022-10-11T18:43:49.710Z,25.53
2022-10-11T18:46:17.340Z,31.63
2022-10-11T18:48:47.420Z,25.20
2022-10-11T18:51:16.227Z,16.93
2022-10-11T18:53:43.682Z,15.43
2022-10-11T18:56:11.879Z,13.50
2022-10-11T18:58:39.792Z,14.60
2022-10-11T19:01:08.472Z,15.00
2022-10-11T19:03:36.136Z,16.23
2022-10-11T19:06:06.509Z,13.27
2022-10-11T19:08:34.657Z,17.63
2022-10-11T19:11:05.430Z,24.63
2022-10-11T19:13:33.097Z,15.53
2022-10-11T19:16:04.458Z,19.50
2022-10-11T19:18:32.170Z,15.60
2022-10-11T19:21:01.916Z,13.63
2022-10-11T19:23:33.758Z,14.57
2022-10-11T19:26:01.807Z,19.57
2022-10-11T19:28:30.028Z,16.63
2022-10-11T19:31:04.871Z,15.50
2022-10-11T19:33:32.614Z,11.87
2022-10-11T19:36:02.416Z,10.00
2022-10-11T19:38:30.016Z,12.07
2022-10-11T19:41:00.595Z,10.07
2022-10-11T19:43:28.549Z,9.90
2022-10-11T19:46:00.084Z,12.23
2022-10-11T19:48:27.623Z,11.10
2022-10-11T19:51:01.825Z,6.73
2022-10-11T19:53:29.250Z,10.33
2022-10-11T19:55:56.741Z,10.43
2022-10-11T19:58:25.515Z,11.07
2022-10-11T20:00:59.950Z,9.73
2022-10-11T20:03:27.444Z,9.23
2022-10-11T20:05:54.892Z,9.53
2022-10-11T20:08:23.235Z,10.30
2022-10-11T20:10:53.526Z,11.17
2022-10-11T20:13:21.270Z,6.97
2022-10-11T20:15:50.037Z,7.07
2022-10-11T20:18:17.776Z,8.87
2022-10-11T20:20:51.769Z,8.87
2022-10-11T20:23:21.471Z,3.87
2022-10-11T20:25:57.792Z,7.60
2022-10-11T20:28:25.334Z,8.63
2022-10-11T20:30:54.244Z,5.90
2022-10-11T20:33:21.720Z,9.10
2022-10-11T20:35:57.606Z,12.83
2022-10-11T20:38:25.112Z,10.10
2022-10-11T20:40:52.587Z,7.53
2022-10-11T20:43:20.068Z,13.90
2022-10-11T20:45:47.611Z,10.27
2022-10-11T20:48:16.378Z,10.47
2022-10-11T20:50:44.887Z,8.33
2022-10-11T20:53:16.274Z,6.77
2022-10-11T20:55:43.902Z,7.63
2022-10-11T20:58:11.337Z,8.13
2022-10-11T21:00:39.460Z,5.03
2022-10-11T21:03:07.008Z,6.63
2022-10-11T21:05:35.781Z,8.90
2022-10-11T21:08:03.563Z,9.03
2022-10-11T21:10:30.976Z,9.67
2022-10-11T21:12:58.408Z,8.70
2022-10-11T21:15:26.008Z,8.00
2022-10-11T21:17:54.298Z,11.00
2022-10-11T21:20:21.734Z,12.37
2022-10-11T21:22:51.031Z,10.57
2022-10-11T21:25:18.500Z,10.00
2022-10-11T21:27:45.926Z,7.43
2022-10-11T21:30:13.385Z,9.57
2022-10-11T21:32:40.884Z,10.63
2022-10-11T21:35:08.298Z,9.97
2022-10-11T21:37:36.332Z,7.13
2022-10-11T21:40:06.185Z,6.17
2022-10-11T21:42:33.750Z,5.77
2022-10-11T21:45:01.273Z,4.07
2022-10-11T21:47:29.563Z,5.23
2022-10-11T21:49:58.759Z,5.73
2022-10-11T21:52:26.222Z,9.73
2022-10-11T21:54:53.643Z,7.60
2022-10-11T21:57:22.422Z,5.37
2022-10-11T21:59:49.840Z,6.57
2022-10-11T22:02:17.289Z,5.83
2022-10-11T22:04:44.783Z,9.20
2022-10-11T22:07:12.199Z,6.83
2022-10-11T22:09:39.621Z,6.90
2022-10-11T22:12:07.340Z,6.77
2022-10-11T22:14:36.122Z,5.73
2022-10-11T22:17:03.823Z,5.97
2022-10-11T22:19:31.250Z,4.83
2022-10-11T22:21:58.701Z,5.50
2022-10-11T22:24:26.633Z,6.93
2022-10-11T22:26:54.083Z,5.87
2022-10-11T22:29:21.542Z,6.43
2022-10-11T22:31:50.313Z,3.80
2022-10-11T22:34:17.758Z,10.10
2022-10-11T22:36:45.182Z,10.07
2022-10-11T22:39:12.596Z,3.90
2022-10-11T22:41:40.277Z,6.17
2022-10-11T22:44:07.820Z,5.73
2022-10-11T22:46:35.268Z,9.43
2022-10-11T22:49:04.113Z,4.50
2022-10-11T22:51:31.590Z,5.03
2022-10-11T22:53:59.131Z,6.27
2022-10-11T22:56:26.608Z,4.17
2022-10-11T22:58:54.045Z,5.63
2022-10-11T23:01:21.585Z,5.57
2022-10-11T23:03:50.611Z,5.10
2022-10-11T23:06:19.621Z,6.13
2022-10-11T23:08:47.063Z,6.20
2022-10-11T23:11:14.514Z,6.83
2022-10-11T23:13:42.132Z,4.13
2022-10-11T23:16:10.334Z,4.93
2022-10-11T23:18:37.966Z,4.67
2022-10-11T23:21:06.006Z,6.33
2022-10-11T23:23:35.040Z,5.77
2022-10-11T23:26:03.193Z,7.03
2022-10-11T23:28:30.664Z,4.80
2022-10-11T23:30:58.120Z,4.70
2022-10-11T23:33:25.723Z,7.17
2022-10-11T23:35:53.179Z,8.83
2022-10-11T23:38:20.611Z,5.93
2022-10-11T23:40:49.423Z,7.40
2022-10-11T23:43:16.823Z,4.93
2022-10-11T23:45:44.398Z,3.63
2022-10-11T23:48:11.935Z,5.43
2022-10-11T23:50:39.395Z,5.07
2022-10-11T23:53:06.900Z,5.00
2022-10-11T23:55:34.381Z,8.57
2022-10-11T23:58:03.128Z,7.97
